sensor_id;sensor_type;location;lat;lon;timestamp;pressure;altitude;pressure_sealevel;temperature;humidity
9521;BME280;4798;41.574;23.734;2023-12-28T00:01:35;96507.25;;;7.04;73.24
9521;BME280;4798;41.574;23.734;2023-12-28T00:04:03;96511.50;;;7.24;73.00
9521;BME280;4798;41.574;23.734;2023-12-28T00:06:32;96512.09;;;7.08;70.95
9521;BME280;4798;41.574;23.734;2023-12-28T00:09:01;96518.59;;;6.56;73.93
9521;BME280;4798;41.574;23.734;2023-12-28T00:11:39;96528.78;;;6.21;75.40
9521;BME280;4798;41.574;23.734;2023-12-28T00:14:08;96524.97;;;6.17;76.22
9521;BME280;4798;41.574;23.734;2023-12-28T00:16:36;96535.16;;;6.00;77.02
9521;BME280;4798;41.574;23.734;2023-12-28T00:19:05;96532.06;;;6.16;74.52
9521;BME280;4798;41.574;23.734;2023-12-28T00:21:34;96536.84;;;6.26;73.40
9521;BME280;4798;41.574;23.734;2023-12-28T00:24:03;96532.91;;;6.42;73.02
9521;BME280;4798;41.574;23.734;2023-12-28T00:26:32;96540.81;;;6.42;71.69
9521;BME280;4798;41.574;23.734;2023-12-28T00:29:01;96425.06;;;5.59;71.75
9521;BME280;4798;41.574;23.734;2023-12-28T00:31:30;96539.88;;;6.29;72.38
9521;BME280;4798;41.574;23.734;2023-12-28T00:33:59;96546.75;;;6.30;71.81
9521;BME280;4798;41.574;23.734;2023-12-28T00:36:27;96533.91;;;6.40;72.01
9521;BME280;4798;41.574;23.734;2023-12-28T00:38:57;96462.81;;;5.78;71.43
9521;BME280;4798;41.574;23.734;2023-12-28T00:41:25;96552.66;;;6.26;71.48
9521;BME280;4798;41.574;23.734;2023-12-28T00:43:54;96555.28;;;6.26;71.85
9521;BME280;4798;41.574;23.734;2023-12-28T00:46:24;96561.78;;;6.23;72.05
9521;BME280;4798;41.574;23.734;2023-12-28T00:48:52;96556.94;;;6.20;71.70
9521;BME280;4798;41.574;23.734;2023-12-28T00:51:21;96564.19;;;6.25;71.94
9521;BME280;4798;41.574;23.734;2023-12-28T00:53:49;96541.31;;;6.25;72.80
9521;BME280;4798;41.574;23.734;2023-12-28T00:56:18;96566.56;;;6.33;71.72
9521;BME280;4798;41.574;23.734;2023-12-28T00:58:47;96561.78;;;6.23;71.15
9521;BME280;4798;41.574;23.734;2023-12-28T01:01:17;96576.34;;;6.26;71.61
9521;BME280;4798;41.574;23.734;2023-12-28T01:03:47;96578.34;;;6.30;71.90
9521;BME280;4798;41.574;23.734;2023-12-28T01:06:16;96582.34;;;6.39;70.53
9521;BME280;4798;41.574;23.734;2023-12-28T01:08:45;96577.56;;;6.23;71.19
9521;BME280;4798;41.574;23.734;2023-12-28T01:11:13;96587.09;;;6.24;71.32
9521;BME280;4798;41.574;23.734;2023-12-28T01:13:42;96585.63;;;6.28;71.23
9521;BME280;4798;41.574;23.734;2023-12-28T01:16:12;96589.28;;;6.27;70.83
9521;BME280;4798;41.574;23.734;2023-12-28T01:18:41;96580.63;;;6.20;71.30
9521;BME280;4798;41.574;23.734;2023-12-28T01:21:11;96588.31;;;6.22;71.60
9521;BME280;4798;41.574;23.734;2023-12-28T01:23:40;96588.94;;;6.17;71.85
9521;BME280;4798;41.574;23.734;2023-12-28T01:26:12;96586.13;;;6.12;71.42
9521;BME280;4798;41.574;23.734;2023-12-28T01:28:41;96571.28;;;6.24;71.92
9521;BME280;4798;41.574;23.734;2023-12-28T01:31:09;96574.88;;;6.36;72.49
9521;BME280;4798;41.574;23.734;2023-12-28T01:33:38;96575.44;;;6.45;71.12
9521;BME280;4798;41.574;23.734;2023-12-28T01:36:17;96574.47;;;6.33;71.63
9521;BME280;4798;41.574;23.734;2023-12-28T01:38:46;96568.03;;;6.29;70.60
9521;BME280;4798;41.574;23.734;2023-12-28T01:41:15;96564.81;;;6.27;71.85
9521;BME280;4798;41.574;23.734;2023-12-28T01:43:43;96559.31;;;6.28;71.56
9521;BME280;4798;41.574;23.734;2023-12-28T01:46:17;96560.97;;;6.23;70.93
9521;BME280;4798;41.574;23.734;2023-12-28T01:48:47;96565.84;;;6.19;71.07
9521;BME280;4798;41.574;23.734;2023-12-28T01:51:20;96568.91;;;6.16;71.68
9521;BME280;4798;41.574;23.734;2023-12-28T01:53:50;96571.41;;;5.98;72.12
9521;BME280;4798;41.574;23.734;2023-12-28T01:56:21;96570.31;;;6.12;72.56
9521;BME280;4798;41.574;23.734;2023-12-28T01:58:50;96569.97;;;6.09;70.88
9521;BME280;4798;41.574;23.734;2023-12-28T02:01:19;96570.38;;;5.48;73.65
9521;BME280;4798;41.574;23.734;2023-12-28T02:03:49;96581.56;;;4.78;77.90
9521;BME280;4798;41.574;23.734;2023-12-28T02:06:19;96583.34;;;4.32;81.28
9521;BME280;4798;41.574;23.734;2023-12-28T02:08:51;96590.03;;;4.54;83.48
9521;BME280;4798;41.574;23.734;2023-12-28T02:11:20;96591.44;;;4.37;84.53
9521;BME280;4798;41.574;23.734;2023-12-28T02:13:48;96583.59;;;4.70;83.23
9521;BME280;4798;41.574;23.734;2023-12-28T02:16:20;96588.03;;;5.15;79.65
9521;BME280;4798;41.574;23.734;2023-12-28T02:18:52;96534.22;;;5.31;77.24
9521;BME280;4798;41.574;23.734;2023-12-28T02:21:24;96587.13;;;5.60;75.98
9521;BME280;4798;41.574;23.734;2023-12-28T02:23:53;96576.41;;;5.55;74.71
9521;BME280;4798;41.574;23.734;2023-12-28T02:26:23;96580.06;;;5.48;74.82
9521;BME280;4798;41.574;23.734;2023-12-28T02:28:52;96579.72;;;5.11;77.12
9521;BME280;4798;41.574;23.734;2023-12-28T02:31:26;96579.47;;;5.46;78.66
9521;BME280;4798;41.574;23.734;2023-12-28T02:34:00;96570.91;;;5.70;79.91
9521;BME280;4798;41.574;23.734;2023-12-28T02:36:34;96574.75;;;5.67;77.28
9521;BME280;4798;41.574;23.734;2023-12-28T02:39:05;96568.28;;;5.63;76.67
9521;BME280;4798;41.574;23.734;2023-12-28T02:41:36;96582.47;;;5.56;74.88
9521;BME280;4798;41.574;23.734;2023-12-28T02:44:05;96572.97;;;5.55;74.69
9521;BME280;4798;41.574;23.734;2023-12-28T02:46:33;96576.00;;;5.58;74.21
9521;BME280;4798;41.574;23.734;2023-12-28T02:49:02;96571.38;;;5.54;73.55
9521;BME280;4798;41.574;23.734;2023-12-28T02:51:31;96548.16;;;5.38;73.68
9521;BME280;4798;41.574;23.734;2023-12-28T02:53:59;96571.75;;;5.64;73.49
9521;BME280;4798;41.574;23.734;2023-12-28T02:56:28;96568.91;;;5.65;73.08
9521;BME280;4798;41.574;23.734;2023-12-28T02:58:58;96567.28;;;5.58;72.96
9521;BME280;4798;41.574;23.734;2023-12-28T03:01:27;96565.75;;;5.44;72.92
9521;BME280;4798;41.574;23.734;2023-12-28T03:03:55;96559.66;;;5.43;72.90
9521;BME280;4798;41.574;23.734;2023-12-28T03:06:24;96565.75;;;5.44;73.21
9521;BME280;4798;41.574;23.734;2023-12-28T03:08:53;96553.19;;;5.46;73.63
9521;BME280;4798;41.574;23.734;2023-12-28T03:11:21;96509.16;;;5.22;72.88
9521;BME280;4798;41.574;23.734;2023-12-28T03:13:50;96571.13;;;5.62;73.10
9521;BME280;4798;41.574;23.734;2023-12-28T03:16:20;96574.16;;;5.65;71.96
9521;BME280;4798;41.574;23.734;2023-12-28T03:18:48;96574.97;;;5.59;72.29
9521;BME280;4798;41.574;23.734;2023-12-28T03:21:17;96574.00;;;5.47;72.33
9521;BME280;4798;41.574;23.734;2023-12-28T03:23:45;96568.34;;;5.50;72.33
9521;BME280;4798;41.574;23.734;2023-12-28T03:26:14;96571.97;;;5.49;72.19
9521;BME280;4798;41.574;23.734;2023-12-28T03:28:42;96573.19;;;5.47;72.88
9521;BME280;4798;41.574;23.734;2023-12-28T03:31:11;96572.97;;;5.55;72.26
9521;BME280;4798;41.574;23.734;2023-12-28T03:33:41;96560.03;;;5.47;71.90
9521;BME280;4798;41.574;23.734;2023-12-28T03:36:17;96572.16;;;5.54;72.05
9521;BME280;4798;41.574;23.734;2023-12-28T03:38:47;96559.44;;;5.51;71.88
9521;BME280;4798;41.574;23.734;2023-12-28T03:41:18;96557.22;;;5.42;72.33
9521;BME280;4798;41.574;23.734;2023-12-28T03:43:47;96584.72;;;5.52;73.01
9521;BME280;4798;41.574;23.734;2023-12-28T03:46:16;96579.06;;;5.49;72.80
9521;BME280;4798;41.574;23.734;2023-12-28T03:48:46;96584.53;;;5.47;72.96
9521;BME280;4798;41.574;23.734;2023-12-28T03:51:15;96591.00;;;5.45;73.09
9521;BME280;4798;41.574;23.734;2023-12-28T03:53:43;96583.31;;;5.37;72.30
9521;BME280;4798;41.574;23.734;2023-12-28T03:56:21;96572.84;;;5.24;73.05
9521;BME280;4798;41.574;23.734;2023-12-28T03:58:51;96591.41;;;5.48;72.53
9521;BME280;4798;41.574;23.734;2023-12-28T04:01:20;96590.78;;;5.53;73.04
9521;BME280;4798;41.574;23.734;2023-12-28T04:03:50;96586.34;;;5.47;72.46
9521;BME280;4798;41.574;23.734;2023-12-28T04:06:19;96579.06;;;5.49;72.57
9521;BME280;4798;41.574;23.734;2023-12-28T04:08:47;96581.88;;;5.47;72.28
9521;BME280;4798;41.574;23.734;2023-12-28T04:11:16;96586.34;;;5.53;72.26
9521;BME280;4798;41.574;23.734;2023-12-28T04:13:45;96577.63;;;5.53;72.39
9521;BME280;4798;41.574;23.734;2023-12-28T04:16:13;96582.72;;;5.41;71.99
9521;BME280;4798;41.574;23.734;2023-12-28T04:18:42;96591.84;;;5.32;72.05
9521;BME280;4798;41.574;23.734;2023-12-28T04:21:13;96594.09;;;5.09;72.59
9521;BME280;4798;41.574;23.734;2023-12-28T04:23:42;96580.31;;;4.41;76.47
9521;BME280;4798;41.574;23.734;2023-12-28T04:26:11;96592.50;;;3.89;79.71
9521;BME280;4798;41.574;23.734;2023-12-28T04:28:39;96572.38;;;3.48;85.74
9521;BME280;4798;41.574;23.734;2023-12-28T04:31:08;96596.28;;;3.79;86.94
9521;BME280;4798;41.574;23.734;2023-12-28T04:33:36;96596.66;;;4.24;82.91
9521;BME280;4798;41.574;23.734;2023-12-28T04:36:05;96586.59;;;4.47;79.53
9521;BME280;4798;41.574;23.734;2023-12-28T04:38:36;96596.53;;;4.78;88.50
9521;BME280;4798;41.574;23.734;2023-12-28T04:41:06;96601.59;;;4.73;79.09
9521;BME280;4798;41.574;23.734;2023-12-28T04:43:34;96596.13;;;4.74;77.41
9521;BME280;4798;41.574;23.734;2023-12-28T04:46:03;96597.13;;;4.73;76.86
9521;BME280;4798;41.574;23.734;2023-12-28T04:48:32;96560.75;;;4.50;76.94
9521;BME280;4798;41.574;23.734;2023-12-28T04:51:02;96596.94;;;4.75;76.42
9521;BME280;4798;41.574;23.734;2023-12-28T04:53:32;96600.56;;;4.80;76.13
9521;BME280;4798;41.574;23.734;2023-12-28T04:56:02;96605.56;;;4.56;75.83
9521;BME280;4798;41.574;23.734;2023-12-28T04:58:31;96611.63;;;4.43;77.92
9521;BME280;4798;41.574;23.734;2023-12-28T05:01:01;96611.84;;;4.55;78.94
9521;BME280;4798;41.574;23.734;2023-12-28T05:03:30;96608.59;;;4.46;78.75
9521;BME280;4798;41.574;23.734;2023-12-28T05:05:58;96613.22;;;4.24;84.19
9521;BME280;4798;41.574;23.734;2023-12-28T05:08:29;96568.63;;;4.44;84.55
9521;BME280;4798;41.574;23.734;2023-12-28T05:10:58;96606.22;;;4.90;81.27
9521;BME280;4798;41.574;23.734;2023-12-28T05:13:28;96601.16;;;4.89;82.86
9521;BME280;4798;41.574;23.734;2023-12-28T05:15:57;96608.84;;;5.03;81.91
9521;BME280;4798;41.574;23.734;2023-12-28T05:18:25;96600.75;;;4.98;79.56
9521;BME280;4798;41.574;23.734;2023-12-28T05:20:54;96611.88;;;4.94;77.15
9521;BME280;4798;41.574;23.734;2023-12-28T05:23:22;96583.78;;;4.81;76.78
9521;BME280;4798;41.574;23.734;2023-12-28T05:25:51;96613.47;;;4.69;76.33
9521;BME280;4798;41.574;23.734;2023-12-28T05:28:19;96610.00;;;4.48;76.95
9521;BME280;4798;41.574;23.734;2023-12-28T05:30:49;96608.00;;;4.37;77.16
9521;BME280;4798;41.574;23.734;2023-12-28T05:33:18;96618.47;;;4.24;78.24
9521;BME280;4798;41.574;23.734;2023-12-28T05:35:47;96618.25;;;4.26;78.24
9521;BME280;4798;41.574;23.734;2023-12-28T05:38:15;96616.81;;;4.17;78.98
9521;BME280;4798;41.574;23.734;2023-12-28T05:40:44;96618.63;;;4.10;80.38
9521;BME280;4798;41.574;23.734;2023-12-28T05:43:13;96622.63;;;4.06;81.44
9521;BME280;4798;41.574;23.734;2023-12-28T05:45:42;96621.81;;;4.05;82.41
9521;BME280;4798;41.574;23.734;2023-12-28T05:48:12;96621.19;;;4.03;83.29
9521;BME280;4798;41.574;23.734;2023-12-28T05:50:41;96629.13;;;4.10;82.03
9521;BME280;4798;41.574;23.734;2023-12-28T05:53:09;96627.44;;;3.96;82.06
9521;BME280;4798;41.574;23.734;2023-12-28T05:55:41;96616.09;;;3.89;82.00
9521;BME280;4798;41.574;23.734;2023-12-28T05:58:10;96624.94;;;3.81;82.99
9521;BME280;4798;41.574;23.734;2023-12-28T06:00:38;96629.81;;;3.91;82.66
9521;BME280;4798;41.574;23.734;2023-12-28T06:03:07;96639.16;;;4.00;82.03
9521;BME280;4798;41.574;23.734;2023-12-28T06:05:37;96632.78;;;4.28;80.26
9521;BME280;4798;41.574;23.734;2023-12-28T06:08:06;96628.97;;;4.31;79.29
9521;BME280;4798;41.574;23.734;2023-12-28T06:10:35;96632.34;;;4.12;79.71
9521;BME280;4798;41.574;23.734;2023-12-28T06:13:03;96634.31;;;3.97;80.79
9521;BME280;4798;41.574;23.734;2023-12-28T06:15:33;96641.75;;;3.93;81.36
9521;BME280;4798;41.574;23.734;2023-12-28T06:18:02;96634.69;;;3.94;81.37
9521;BME280;4798;41.574;23.734;2023-12-28T06:20:32;96620.38;;;3.96;81.56
9521;BME280;4798;41.574;23.734;2023-12-28T06:23:02;96631.97;;;4.21;81.56
9521;BME280;4798;41.574;23.734;2023-12-28T06:25:30;96633.63;;;4.42;80.34
9521;BME280;4798;41.574;23.734;2023-12-28T06:27:59;96630.44;;;4.66;79.62
9521;BME280;4798;41.574;23.734;2023-12-28T06:30:28;96633.69;;;4.75;79.23
9521;BME280;4798;41.574;23.734;2023-12-28T06:32:57;96641.38;;;4.76;78.42
9521;BME280;4798;41.574;23.734;2023-12-28T06:35:26;96637.72;;;4.71;79.28
9521;BME280;4798;41.574;23.734;2023-12-28T06:37:54;96632.28;;;4.72;78.99
9521;BME280;4798;41.574;23.734;2023-12-28T06:40:24;96639.38;;;5.18;78.22
9521;BME280;4798;41.574;23.734;2023-12-28T06:42:53;96637.50;;;5.44;77.27
9521;BME280;4798;41.574;23.734;2023-12-28T06:45:22;96630.16;;;5.86;74.74
9521;BME280;4798;41.574;23.734;2023-12-28T06:47:55;96625.81;;;6.11;74.58
9521;BME280;4798;41.574;23.734;2023-12-28T06:50:24;96640.63;;;6.12;74.53
9521;BME280;4798;41.574;23.734;2023-12-28T06:52:53;96620.09;;;6.20;74.40
9521;BME280;4798;41.574;23.734;2023-12-28T06:55:21;96630.63;;;6.65;72.72
9521;BME280;4798;41.574;23.734;2023-12-28T06:57:51;96625.78;;;7.11;71.46
9521;BME280;4798;41.574;23.734;2023-12-28T07:00:20;96629.38;;;7.41;70.34
9521;BME280;4798;41.574;23.734;2023-12-28T07:02:48;96626.69;;;7.48;70.42
9521;BME280;4798;41.574;23.734;2023-12-28T07:05:17;96612.78;;;7.77;68.21
9521;BME280;4798;41.574;23.734;2023-12-28T07:07:46;96620.03;;;8.18;67.58
9521;BME280;4798;41.574;23.734;2023-12-28T07:10:14;96619.03;;;8.37;65.17
9521;BME280;4798;41.574;23.734;2023-12-28T07:12:43;96620.78;;;8.84;63.87
9521;BME280;4798;41.574;23.734;2023-12-28T07:15:13;96624.09;;;9.33;61.79
9521;BME280;4798;41.574;23.734;2023-12-28T07:17:42;96625.81;;;9.39;60.93
9521;BME280;4798;41.574;23.734;2023-12-28T07:20:11;96630.28;;;9.27;60.18
9521;BME280;4798;41.574;23.734;2023-12-28T07:22:40;96625.72;;;9.45;59.66
9521;BME280;4798;41.574;23.734;2023-12-28T07:25:08;96631.78;;;9.23;58.74
9521;BME280;4798;41.574;23.734;2023-12-28T07:27:37;96639.38;;;9.54;58.30
9521;BME280;4798;41.574;23.734;2023-12-28T07:30:06;96640.41;;;9.88;56.82
9521;BME280;4798;41.574;23.734;2023-12-28T07:32:37;96636.81;;;10.17;56.17
9521;BME280;4798;41.574;23.734;2023-12-28T07:35:06;96619.56;;;10.43;56.00
9521;BME280;4798;41.574;23.734;2023-12-28T07:37:35;96554.69;;;10.17;55.09
9521;BME280;4798;41.574;23.734;2023-12-28T07:40:04;96624.22;;;10.64;53.87
9521;BME280;4798;41.574;23.734;2023-12-28T07:42:33;96626.50;;;10.44;53.76
9521;BME280;4798;41.574;23.734;2023-12-28T07:45:03;96633.66;;;10.88;53.95
9521;BME280;4798;41.574;23.734;2023-12-28T07:47:31;96642.56;;;11.10;53.81
9521;BME280;4798;41.574;23.734;2023-12-28T07:50:02;96633.63;;;11.16;53.31
9521;BME280;4798;41.574;23.734;2023-12-28T07:52:31;96639.28;;;11.53;52.18
9521;BME280;4798;41.574;23.734;2023-12-28T07:54:59;96653.59;;;11.85;51.56
9521;BME280;4798;41.574;23.734;2023-12-28T07:57:28;96650.94;;;12.07;51.88
9521;BME280;4798;41.574;23.734;2023-12-28T07:59:58;96626.72;;;11.32;52.89
9521;BME280;4798;41.574;23.734;2023-12-28T08:02:26;96649.31;;;11.68;52.46
9521;BME280;4798;41.574;23.734;2023-12-28T08:04:55;96647.19;;;12.03;52.03
9521;BME280;4798;41.574;23.734;2023-12-28T08:07:25;96654.06;;;12.21;51.65
9521;BME280;4798;41.574;23.734;2023-12-28T08:09:54;96634.44;;;12.48;50.67
9521;BME280;4798;41.574;23.734;2023-12-28T08:12:23;96650.34;;;13.45;49.66
9521;BME280;4798;41.574;23.734;2023-12-28T08:14:55;96646.13;;;13.91;48.80
9521;BME280;4798;41.574;23.734;2023-12-28T08:17:24;96644.13;;;14.13;47.95
9521;BME280;4798;41.574;23.734;2023-12-28T08:19:52;96646.09;;;13.86;48.55
9521;BME280;4798;41.574;23.734;2023-12-28T08:22:22;96653.69;;;14.09;48.65
9521;BME280;4798;41.574;23.734;2023-12-28T08:24:52;96654.28;;;14.16;47.51
9521;BME280;4798;41.574;23.734;2023-12-28T08:27:21;96650.41;;;14.39;48.04
9521;BME280;4798;41.574;23.734;2023-12-28T08:29:49;96652.16;;;14.23;47.34
9521;BME280;4798;41.574;23.734;2023-12-28T08:32:18;96592.00;;;14.42;46.72
9521;BME280;4798;41.574;23.734;2023-12-28T08:34:47;96639.44;;;15.27;46.36
9521;BME280;4798;41.574;23.734;2023-12-28T08:37:16;96637.81;;;15.42;45.12
9521;BME280;4798;41.574;23.734;2023-12-28T08:39:45;96627.13;;;15.26;45.08
9521;BME280;4798;41.574;23.734;2023-12-28T08:42:15;96630.34;;;15.69;44.57
9521;BME280;4798;41.574;23.734;2023-12-28T08:44:43;96632.59;;;16.36;43.72
9521;BME280;4798;41.574;23.734;2023-12-28T08:47:15;96623.00;;;16.89;42.42
9521;BME280;4798;41.574;23.734;2023-12-28T08:49:44;96618.50;;;16.79;43.20
9521;BME280;4798;41.574;23.734;2023-12-28T08:52:14;96606.38;;;16.92;42.37
9521;BME280;4798;41.574;23.734;2023-12-28T08:54:42;96605.31;;;16.88;41.61
9521;BME280;4798;41.574;23.734;2023-12-28T08:57:11;96614.22;;;17.51;41.06
9521;BME280;4798;41.574;23.734;2023-12-28T08:59:41;96593.09;;;17.49;40.22
9521;BME280;4798;41.574;23.734;2023-12-28T09:02:10;96607.88;;;17.08;40.40
9521;BME280;4798;41.574;23.734;2023-12-28T09:04:38;96602.19;;;17.53;40.82
9521;BME280;4798;41.574;23.734;2023-12-28T09:07:07;96604.31;;;17.51;40.08
9521;BME280;4798;41.574;23.734;2023-12-28T09:09:36;96599.16;;;17.89;40.45
9521;BME280;4798;41.574;23.734;2023-12-28T09:12:05;96591.53;;;18.01;39.96
9521;BME280;4798;41.574;23.734;2023-12-28T09:14:34;96585.44;;;17.95;40.39
9521;BME280;4798;41.574;23.734;2023-12-28T09:17:04;96580.66;;;18.16;40.16
9521;BME280;4798;41.574;23.734;2023-12-28T09:19:32;96577.53;;;17.80;40.27
9521;BME280;4798;41.574;23.734;2023-12-28T09:22:00;96573.38;;;17.93;40.63
9521;BME280;4798;41.574;23.734;2023-12-28T09:24:29;96563.91;;;18.66;39.85
9521;BME280;4798;41.574;23.734;2023-12-28T09:26:58;96550.69;;;18.70;40.38
9521;BME280;4798;41.574;23.734;2023-12-28T09:29:26;96554.63;;;18.35;39.18
9521;BME280;4798;41.574;23.734;2023-12-28T09:31:55;96554.50;;;18.03;39.50
9521;BME280;4798;41.574;23.734;2023-12-28T09:34:25;96538.28;;;18.55;39.96
9521;BME280;4798;41.574;23.734;2023-12-28T09:36:53;96527.13;;;18.67;38.62
9521;BME280;4798;41.574;23.734;2023-12-28T09:39:22;96526.22;;;18.34;39.43
9521;BME280;4798;41.574;23.734;2023-12-28T09:41:55;96516.09;;;19.79;37.78
9521;BME280;4798;41.574;23.734;2023-12-28T09:44:26;96510.72;;;19.79;36.77
9521;BME280;4798;41.574;23.734;2023-12-28T09:46:57;96498.09;;;19.93;37.09
9521;BME280;4798;41.574;23.734;2023-12-28T09:49:28;96499.50;;;20.67;35.64
9521;BME280;4798;41.574;23.734;2023-12-28T09:52:00;96492.00;;;19.87;35.93
9521;BME280;4798;41.574;23.734;2023-12-28T09:54:29;96496.69;;;19.68;36.12
9521;BME280;4798;41.574;23.734;2023-12-28T09:56:58;96494.44;;;19.11;36.91
9521;BME280;4798;41.574;23.734;2023-12-28T09:59:26;96480.06;;;19.34;36.71
9521;BME280;4798;41.574;23.734;2023-12-28T10:01:56;96484.72;;;20.01;35.77
9521;BME280;4798;41.574;23.734;2023-12-28T10:04:25;96480.72;;;20.62;35.32
9521;BME280;4798;41.574;23.734;2023-12-28T10:06:57;96469.78;;;21.56;34.18
9521;BME280;4798;41.574;23.734;2023-12-28T10:09:26;96467.91;;;21.25;34.02
9521;BME280;4798;41.574;23.734;2023-12-28T10:11:55;96450.41;;;21.14;34.66
9521;BME280;4798;41.574;23.734;2023-12-28T10:14:25;96456.06;;;21.74;34.24
9521;BME280;4798;41.574;23.734;2023-12-28T10:16:54;96452.69;;;21.60;34.25
9521;BME280;4798;41.574;23.734;2023-12-28T10:19:22;96441.13;;;22.07;32.59
9521;BME280;4798;41.574;23.734;2023-12-28T10:21:51;96443.34;;;21.66;33.22
9521;BME280;4798;41.574;23.734;2023-12-28T10:24:22;96439.16;;;21.21;34.11
9521;BME280;4798;41.574;23.734;2023-12-28T10:26:52;96429.47;;;21.50;33.90
9521;BME280;4798;41.574;23.734;2023-12-28T10:29:21;96376.72;;;21.75;32.75
9521;BME280;4798;41.574;23.734;2023-12-28T10:31:53;96417.97;;;22.58;31.86
9521;BME280;4798;41.574;23.734;2023-12-28T10:34:22;96404.13;;;22.85;32.34
9521;BME280;4798;41.574;23.734;2023-12-28T10:36:53;96404.38;;;23.64;32.03
9521;BME280;4798;41.574;23.734;2023-12-28T10:39:24;96396.97;;;24.32;30.06
9521;BME280;4798;41.574;23.734;2023-12-28T10:41:55;96389.94;;;23.60;32.08
9521;BME280;4798;41.574;23.734;2023-12-28T10:44:28;96382.84;;;24.26;30.29
9521;BME280;4798;41.574;23.734;2023-12-28T10:47:02;96362.72;;;23.57;31.22
9521;BME280;4798;41.574;23.734;2023-12-28T10:49:33;96319.91;;;21.89;32.73
9521;BME280;4798;41.574;23.734;2023-12-28T10:52:07;96371.25;;;22.66;32.78
9521;BME280;4798;41.574;23.734;2023-12-28T10:54:44;96365.28;;;22.98;32.39
9521;BME280;4798;41.574;23.734;2023-12-28T10:57:20;96362.50;;;23.24;31.19
9521;BME280;4798;41.574;23.734;2023-12-28T11:00:00;96352.56;;;24.45;30.08
9521;BME280;4798;41.574;23.734;2023-12-28T11:02:38;96350.72;;;23.66;31.06
9521;BME280;4798;41.574;23.734;2023-12-28T11:05:08;96348.25;;;24.44;30.07
9521;BME280;4798;41.574;23.734;2023-12-28T11:07:38;96341.13;;;25.05;29.32
9521;BME280;4798;41.574;23.734;2023-12-28T11:10:10;96337.13;;;24.78;29.57
9521;BME280;4798;41.574;23.734;2023-12-28T11:12:43;96335.59;;;24.15;30.31
9521;BME280;4798;41.574;23.734;2023-12-28T11:15:12;96326.06;;;23.30;31.36
9521;BME280;4798;41.574;23.734;2023-12-28T11:17:42;96326.63;;;23.44;31.21
9521;BME280;4798;41.574;23.734;2023-12-28T11:20:12;96329.69;;;23.34;30.58
9521;BME280;4798;41.574;23.734;2023-12-28T11:22:41;96320.44;;;23.73;31.70
9521;BME280;4798;41.574;23.734;2023-12-28T11:25:18;96315.22;;;23.68;30.25
9521;BME280;4798;41.574;23.734;2023-12-28T11:27:47;96317.16;;;23.21;31.62
9521;BME280;4798;41.574;23.734;2023-12-28T11:30:16;96307.41;;;23.87;31.72
9521;BME280;4798;41.574;23.734;2023-12-28T11:32:45;96296.75;;;24.11;30.97
9521;BME280;4798;41.574;23.734;2023-12-28T11:35:13;96296.28;;;25.19;29.52
9521;BME280;4798;41.574;23.734;2023-12-28T11:37:46;96278.44;;;26.07;28.59
9521;BME280;4798;41.574;23.734;2023-12-28T11:40:18;96232.06;;;25.23;28.79
9521;BME280;4798;41.574;23.734;2023-12-28T11:42:51;96286.09;;;24.27;29.85
9521;BME280;4798;41.574;23.734;2023-12-28T11:45:21;96280.84;;;24.10;30.25
9521;BME280;4798;41.574;23.734;2023-12-28T11:47:59;96217.06;;;23.71;30.57
9521;BME280;4798;41.574;23.734;2023-12-28T11:50:28;96275.25;;;25.04;28.93
9521;BME280;4798;41.574;23.734;2023-12-28T11:52:57;96278.00;;;24.72;29.20
9521;BME280;4798;41.574;23.734;2023-12-28T11:55:28;96251.59;;;24.36;29.81
9521;BME280;4798;41.574;23.734;2023-12-28T11:57:56;96269.78;;;24.80;28.98
9521;BME280;4798;41.574;23.734;2023-12-28T12:00:25;96273.63;;;25.76;27.80
9521;BME280;4798;41.574;23.734;2023-12-28T12:02:54;96246.97;;;24.93;28.60
9521;BME280;4798;41.574;23.734;2023-12-28T12:05:24;96264.06;;;26.18;28.09
9521;BME280;4798;41.574;23.734;2023-12-28T12:07:52;96277.84;;;25.85;27.96
9521;BME280;4798;41.574;23.734;2023-12-28T12:10:21;96262.94;;;25.07;27.91
9521;BME280;4798;41.574;23.734;2023-12-28T12:12:53;96259.69;;;25.50;27.88
9521;BME280;4798;41.574;23.734;2023-12-28T12:15:22;96265.31;;;25.08;28.50
9521;BME280;4798;41.574;23.734;2023-12-28T12:17:50;96249.59;;;26.02;27.54
9521;BME280;4798;41.574;23.734;2023-12-28T12:20:19;96249.13;;;25.36;27.61
9521;BME280;4798;41.574;23.734;2023-12-28T12:22:48;96249.38;;;25.95;27.38
9521;BME280;4798;41.574;23.734;2023-12-28T12:25:17;96240.03;;;26.20;26.88
9521;BME280;4798;41.574;23.734;2023-12-28T12:27:47;96244.91;;;25.75;27.68
9521;BME280;4798;41.574;23.734;2023-12-28T12:30:18;96241.41;;;26.14;27.42
9521;BME280;4798;41.574;23.734;2023-12-28T12:32:48;96241.53;;;26.18;29.52
9521;BME280;4798;41.574;23.734;2023-12-28T12:35:17;96246.06;;;25.62;27.66
9521;BME280;4798;41.574;23.734;2023-12-28T12:37:48;96240.69;;;23.41;29.62
9521;BME280;4798;41.574;23.734;2023-12-28T12:40:18;96245.97;;;25.10;32.72
9521;BME280;4798;41.574;23.734;2023-12-28T12:42:54;96217.13;;;26.21;29.15
9521;BME280;4798;41.574;23.734;2023-12-28T12:45:25;96230.81;;;25.45;27.79
9521;BME280;4798;41.574;23.734;2023-12-28T12:47:54;96223.38;;;24.16;28.70
9521;BME280;4798;41.574;23.734;2023-12-28T12:50:23;96224.47;;;23.62;28.98
9521;BME280;4798;41.574;23.734;2023-12-28T12:52:51;96221.47;;;21.95;31.32
9521;BME280;4798;41.574;23.734;2023-12-28T12:55:20;96221.47;;;23.05;30.14
9521;BME280;4798;41.574;23.734;2023-12-28T12:57:49;96218.22;;;23.90;29.06
9521;BME280;4798;41.574;23.734;2023-12-28T13:00:19;96223.91;;;24.30;28.83
9521;BME280;4798;41.574;23.734;2023-12-28T13:02:51;96209.13;;;24.07;28.67
9521;BME280;4798;41.574;23.734;2023-12-28T13:05:20;96220.53;;;23.01;29.52
9521;BME280;4798;41.574;23.734;2023-12-28T13:07:49;96209.69;;;23.59;29.67
9521;BME280;4798;41.574;23.734;2023-12-28T13:10:17;96209.28;;;23.90;28.54
9521;BME280;4798;41.574;23.734;2023-12-28T13:12:46;96214.34;;;24.57;32.84
9521;BME280;4798;41.574;23.734;2023-12-28T13:15:15;96201.78;;;24.85;28.33
9521;BME280;4798;41.574;23.734;2023-12-28T13:17:44;96193.25;;;24.62;28.78
9521;BME280;4798;41.574;23.734;2023-12-28T13:20:14;96199.63;;;24.91;28.39
9521;BME280;4798;41.574;23.734;2023-12-28T13:22:42;96199.13;;;24.08;30.07
9521;BME280;4798;41.574;23.734;2023-12-28T13:25:11;96187.66;;;23.69;30.15
9521;BME280;4798;41.574;23.734;2023-12-28T13:27:40;96200.56;;;23.64;30.85
9521;BME280;4798;41.574;23.734;2023-12-28T13:30:10;96197.75;;;23.31;31.13